Terminal Aerodrome Forecast
Issued by NWS Twin Cities, MN

Home | Current Version | Previous Version | Text Only | Print | Product List | Glossary Off
Versions: 1 2 3 4 5 6 7 8 9 10 11 12 13 14

625
FTUS43 KMPX 282327
TAFEAU
TAF
KEAU 282327Z 2900/2924 20009KT P6SM VCTS SCT030CB BKN090
      TEMPO 2900/2902 3SM TSRA BKN030CB
     FM290300 23007KT P6SM SCT025 BKN080
     FM290800 25006KT P6SM BKN030
     FM291700 29008KT P6SM BKN025
     FM292200 32006KT P6SM BKN035=

USA.gov is the U.S. government's official web portal to all federal, state and local government web resources and services.